createdAt,value
2022-11-21T00:01:32.294Z,24.40
2022-11-21T00:04:59.645Z,23.40
2022-11-21T00:08:26.482Z,24.90
2022-11-21T00:11:54.849Z,23.80
2022-11-21T00:15:21.666Z,23.50
2022-11-21T00:18:49.238Z,23.70
2022-11-21T00:22:15.959Z,22.80
2022-11-21T00:25:42.586Z,25.40
2022-11-21T00:29:09.676Z,24.80
2022-11-21T00:32:37.112Z,24.90
2022-11-21T00:36:10.628Z,24.40
2022-11-21T00:39:37.253Z,22.00
2022-11-21T00:43:04.168Z,25.10
2022-11-21T00:46:30.809Z,24.90
2022-11-21T00:49:57.766Z,22.10
2022-11-21T00:53:24.872Z,23.40
2022-11-21T00:56:51.704Z,23.60
2022-11-21T01:00:20.454Z,22.70
2022-11-21T01:03:47.349Z,25.40
2022-11-21T01:07:15.679Z,26.90
2022-11-21T01:10:42.373Z,29.90
2022-11-21T01:14:09.427Z,28.60
2022-11-21T01:17:36.670Z,29.80
2022-11-21T01:21:05.262Z,30.30
2022-11-21T01:24:32.453Z,28.80
2022-11-21T01:27:59.320Z,36.30
2022-11-21T01:31:28.154Z,33.10
2022-11-21T01:34:54.980Z,31.50
2022-11-21T01:38:21.680Z,28.20
2022-11-21T01:41:48.542Z,30.00
2022-11-21T01:45:46.765Z,32.60
2022-11-21T01:49:16.675Z,33.10
2022-11-21T01:52:43.527Z,35.10
2022-11-21T01:56:11.557Z,32.40
2022-11-21T01:59:44.453Z,34.50
2022-11-21T02:03:16.727Z,34.40
2022-11-21T02:06:44.704Z,34.40
2022-11-21T02:10:13.207Z,32.10
2022-11-21T02:13:40.198Z,30.10
2022-11-21T02:17:10.409Z,27.10
2022-11-21T02:20:40.096Z,28.20
2022-11-21T02:24:13.606Z,29.40
2022-11-21T02:27:41.043Z,25.10
2022-11-21T02:31:07.838Z,26.30
2022-11-21T02:34:34.942Z,26.20
2022-11-21T02:38:03.506Z,27.40
2022-11-21T02:41:34.587Z,26.60
2022-11-21T02:45:09.003Z,23.60
2022-11-21T02:48:37.360Z,25.00
2022-11-21T02:52:04.343Z,18.00
2022-11-21T02:55:31.037Z,25.00
2022-11-21T02:58:57.770Z,30.70
2022-11-21T03:02:24.808Z,33.40
2022-11-21T03:05:51.718Z,34.80
2022-11-21T03:09:18.444Z,36.10
2022-11-21T03:12:46.723Z,34.10
2022-11-21T03:16:13.369Z,33.50
2022-11-21T03:19:40.084Z,33.70
2022-11-21T03:23:06.935Z,33.20
2022-11-21T03:26:33.864Z,34.10
2022-11-21T03:30:00.632Z,31.10
2022-11-21T03:33:27.624Z,32.30
2022-11-21T03:36:54.892Z,34.80
2022-11-21T03:40:21.806Z,33.60
2022-11-21T03:43:49.160Z,30.10
2022-11-21T03:47:18.150Z,30.80
2022-11-21T03:50:46.690Z,28.30
2022-11-21T03:54:13.936Z,27.80
2022-11-21T03:57:41.815Z,29.80
2022-11-21T04:01:09.134Z,26.90
2022-11-21T04:04:36.203Z,28.90
2022-11-21T04:08:02.871Z,30.00
2022-11-21T04:11:30.627Z,29.30
2022-11-21T04:14:57.969Z,27.90
2022-11-21T04:18:25.253Z,29.60
2022-11-21T04:21:52.086Z,28.90
2022-11-21T04:25:19.057Z,30.20
2022-11-21T04:28:45.991Z,28.90
2022-11-21T04:32:12.828Z,27.80
2022-11-21T04:35:39.684Z,29.70
2022-11-21T04:39:06.847Z,29.80
2022-11-21T04:42:33.644Z,31.00
2022-11-21T04:46:00.470Z,29.70
2022-11-21T04:49:27.400Z,31.50
2022-11-21T04:52:55.046Z,31.70
2022-11-21T04:56:21.878Z,34.10
2022-11-21T04:59:48.909Z,31.60
2022-11-21T05:03:16.345Z,36.50
2022-11-21T05:06:43.017Z,36.40
2022-11-21T05:10:11.327Z,37.20
2022-11-21T05:13:38.420Z,35.90
2022-11-21T05:17:05.105Z,37.30
2022-11-21T05:20:35.753Z,33.70
2022-11-21T05:24:04.246Z,40.90
2022-11-21T05:27:30.958Z,39.70
2022-11-21T05:30:57.817Z,38.20
2022-11-21T05:34:24.881Z,38.80
2022-11-21T05:37:56.094Z,35.30
2022-11-21T05:41:27.279Z,38.40
2022-11-21T05:44:54.338Z,39.20
2022-11-21T05:48:21.471Z,37.20
2022-11-21T05:51:48.227Z,36.10
2022-11-21T05:55:15.239Z,34.40
2022-11-21T05:58:42.385Z,34.10
2022-11-21T06:02:27.058Z,33.40
2022-11-21T06:05:53.752Z,34.80
2022-11-21T06:09:20.555Z,35.70
2022-11-21T06:12:47.301Z,37.20
2022-11-21T06:16:15.847Z,32.40
2022-11-21T06:19:42.412Z,33.80
2022-11-21T06:23:09.017Z,35.30
2022-11-21T06:26:35.652Z,34.60
2022-11-21T06:30:02.713Z,37.30
2022-11-21T06:33:29.996Z,37.80
2022-11-21T06:36:56.906Z,39.70
2022-11-21T06:40:23.732Z,41.50
2022-11-21T06:43:50.625Z,46.20
2022-11-21T06:47:17.231Z,41.70
2022-11-21T06:50:43.870Z,37.10
2022-11-21T06:54:16.244Z,35.90
2022-11-21T06:57:43.634Z,39.70
2022-11-21T07:01:12.146Z,40.80
2022-11-21T07:04:39.036Z,41.50
2022-11-21T07:08:11.914Z,39.40
2022-11-21T07:11:40.035Z,36.80
2022-11-21T07:15:08.291Z,38.30
2022-11-21T07:18:35.485Z,38.20
2022-11-21T07:22:02.998Z,40.90
2022-11-21T07:25:35.230Z,41.30
2022-11-21T07:29:03.774Z,42.60
2022-11-21T07:32:30.587Z,44.80
2022-11-21T07:35:58.351Z,34.70
2022-11-21T07:39:25.226Z,46.60
2022-11-21T07:42:52.266Z,43.10
2022-11-21T07:46:18.993Z,46.20
2022-11-21T07:49:45.653Z,46.60
2022-11-21T07:53:13.225Z,46.60
2022-11-21T07:56:39.807Z,45.60
2022-11-21T08:00:09.658Z,41.90
2022-11-21T08:03:36.306Z,40.90
2022-11-21T08:07:03.566Z,44.90
2022-11-21T08:10:30.635Z,42.10
2022-11-21T08:13:57.570Z,44.80
2022-11-21T08:17:26.750Z,42.30
2022-11-21T08:20:53.366Z,38.20
2022-11-21T08:24:20.082Z,42.40
2022-11-21T08:27:46.656Z,41.90
2022-11-21T08:31:14.296Z,42.00
2022-11-21T08:34:40.935Z,40.40
2022-11-21T08:38:07.807Z,39.80
2022-11-21T08:41:53.142Z,45.00
2022-11-21T08:45:19.927Z,45.90
2022-11-21T08:48:46.670Z,45.20
2022-11-21T08:52:13.331Z,44.90
2022-11-21T08:55:39.939Z,48.00
2022-11-21T08:59:06.753Z,48.40
2022-11-21T09:02:33.578Z,44.10
2022-11-21T09:06:01.085Z,100.40
2022-11-21T09:09:28.092Z,59.60
2022-11-21T09:12:54.913Z,46.80
2022-11-21T09:16:39.501Z,40.40
2022-11-21T09:20:08.113Z,41.10
2022-11-21T09:23:34.722Z,47.20
2022-11-21T09:27:01.772Z,50.80
2022-11-21T09:30:28.401Z,47.70
2022-11-21T09:33:55.328Z,48.00
2022-11-21T09:37:22.426Z,48.30
2022-11-21T09:40:50.840Z,51.40
2022-11-21T09:44:33.170Z,48.40
2022-11-21T09:48:00.205Z,42.40
2022-11-21T09:51:30.496Z,45.80
2022-11-21T09:55:04.597Z,52.90
2022-11-21T09:58:37.764Z,54.90
2022-11-21T10:02:14.784Z,48.40
2022-11-21T10:05:47.027Z,48.90
2022-11-21T10:09:26.680Z,54.20
2022-11-21T10:16:38.012Z,48.30
2022-11-21T10:20:29.320Z,61.60
2022-11-21T10:24:11.570Z,53.60
2022-11-21T10:27:43.804Z,50.70
2022-11-21T10:31:13.313Z,52.50
2022-11-21T10:38:20.581Z,51.50
2022-11-21T10:41:52.835Z,47.60
2022-11-21T10:45:20.508Z,48.30
2022-11-21T10:48:55.891Z,50.60
2022-11-21T10:52:27.228Z,52.20
2022-11-21T10:56:03.246Z,50.60
2022-11-21T10:59:31.930Z,50.00
2022-11-21T11:03:18.016Z,48.10
2022-11-21T11:06:46.823Z,55.20
2022-11-21T11:10:28.209Z,55.70
2022-11-21T11:13:59.934Z,56.40
2022-11-21T11:17:35.139Z,49.70
2022-11-21T11:21:15.956Z,48.80
2022-11-21T11:24:57.584Z,47.50
2022-11-21T11:28:27.914Z,51.00
2022-11-21T11:31:58.842Z,51.10
2022-11-21T11:35:28.133Z,52.80
2022-11-21T11:38:58.778Z,51.40
2022-11-21T11:43:04.521Z,61.20
2022-11-21T11:47:02.934Z,54.10
2022-11-21T11:50:38.099Z,53.50
2022-11-21T11:54:09.492Z,48.00
2022-11-21T11:57:38.904Z,52.40
2022-11-21T12:01:11.319Z,56.70
2022-11-21T12:04:46.988Z,58.70
2022-11-21T12:12:16.304Z,60.90
2022-11-21T12:15:50.485Z,52.20
2022-11-21T12:19:18.720Z,73.50
2022-11-21T12:22:48.612Z,66.10
2022-11-21T12:26:35.891Z,58.00
2022-11-21T12:30:22.013Z,50.00
2022-11-21T12:34:03.868Z,69.20
2022-11-21T12:37:43.504Z,44.30
2022-11-21T12:41:41.375Z,50.10
2022-11-21T12:45:28.901Z,49.00
2022-11-21T12:49:32.734Z,49.80
2022-11-21T12:53:32.484Z,55.30
2022-11-21T12:57:09.109Z,51.70
2022-11-21T13:00:47.950Z,58.90
2022-11-21T13:04:19.407Z,56.00
2022-11-21T13:07:47.420Z,56.10
2022-11-21T13:11:41.087Z,67.60
2022-11-21T13:15:18.729Z,78.30
2022-11-21T13:18:48.243Z,85.40
2022-11-21T13:25:53.899Z,52.40
2022-11-21T13:29:20.818Z,58.00
2022-11-21T13:32:49.757Z,51.50
2022-11-21T13:36:42.026Z,42.40
2022-11-21T13:40:39.702Z,63.00
2022-11-21T13:44:39.950Z,64.70
2022-11-21T13:48:23.454Z,55.90
2022-11-21T13:51:56.411Z,62.70
2022-11-21T13:55:42.473Z,84.40
2022-11-21T13:59:28.061Z,70.10
2022-11-21T14:03:33.067Z,57.70
2022-11-21T14:07:22.500Z,53.30
2022-11-21T14:10:51.621Z,64.50
2022-11-21T14:14:35.882Z,53.80
2022-11-21T14:18:03.581Z,63.80
2022-11-21T14:21:32.961Z,119.90
2022-11-21T14:25:00.629Z,117.60
2022-11-21T14:28:29.033Z,94.70
2022-11-21T14:31:56.870Z,83.20
2022-11-21T14:35:25.631Z,77.60
2022-11-21T14:39:21.139Z,65.90
2022-11-21T14:42:42.167Z,67.30
2022-11-21T14:46:17.101Z,60.20
2022-11-21T14:49:51.807Z,65.00
2022-11-21T14:53:18.519Z,73.40
2022-11-21T14:56:47.921Z,71.90
2022-11-21T15:00:58.720Z,62.40
2022-11-21T15:04:15.103Z,63.70
2022-11-21T15:07:45.581Z,59.80
2022-11-21T15:11:13.239Z,62.60
2022-11-21T15:14:44.063Z,63.10
2022-11-21T15:18:27.896Z,59.10
2022-11-21T15:21:58.216Z,63.00
2022-11-21T15:25:26.628Z,66.00
2022-11-21T15:28:59.489Z,63.90
2022-11-21T15:32:26.319Z,55.60
2022-11-21T15:35:56.960Z,60.00
2022-11-21T15:39:24.889Z,59.40
2022-11-21T15:42:51.727Z,57.80
2022-11-21T15:46:21.712Z,62.90
2022-11-21T15:50:04.085Z,62.90
2022-11-21T15:53:30.801Z,65.50
2022-11-21T15:56:57.425Z,58.50
2022-11-21T16:00:24.604Z,62.10
2022-11-21T16:03:54.781Z,55.80
2022-11-21T16:07:21.504Z,55.10
2022-11-21T16:10:48.705Z,57.60
2022-11-21T16:14:18.374Z,63.30
2022-11-21T16:17:47.352Z,74.90
2022-11-21T16:21:14.721Z,64.90
2022-11-21T16:24:41.389Z,64.10
2022-11-21T16:28:08.209Z,61.50
2022-11-21T16:31:35.416Z,62.20
2022-11-21T16:35:02.032Z,60.90
2022-11-21T16:38:30.458Z,67.00
2022-11-21T16:41:57.633Z,65.50
2022-11-21T16:45:24.763Z,61.10
2022-11-21T16:48:58.124Z,77.60
2022-11-21T16:52:26.457Z,67.70
2022-11-21T16:56:02.371Z,74.40
2022-11-21T16:59:29.265Z,75.90
2022-11-21T17:02:57.116Z,66.50
2022-11-21T17:06:27.210Z,87.10
2022-11-21T17:09:54.182Z,72.40
2022-11-21T17:13:21.117Z,61.60
2022-11-21T17:16:49.993Z,79.60
2022-11-21T17:20:16.944Z,96.30
2022-11-21T17:23:45.331Z,118.90
2022-11-21T17:27:13.118Z,90.40
2022-11-21T17:30:44.074Z,72.20
2022-11-21T17:34:11.740Z,65.40
2022-11-21T17:37:38.897Z,74.30
2022-11-21T17:41:07.541Z,74.90
2022-11-21T17:44:34.458Z,57.80
2022-11-21T17:48:01.128Z,79.80
2022-11-21T17:51:32.257Z,74.80
2022-11-21T17:54:59.074Z,82.90
2022-11-21T17:58:26.110Z,73.70
2022-11-21T18:01:53.197Z,82.10
2022-11-21T18:05:20.465Z,79.10
2022-11-21T18:08:49.210Z,83.20
2022-11-21T18:12:16.360Z,77.50
2022-11-21T18:15:43.576Z,76.90
2022-11-21T18:19:12.292Z,78.80
2022-11-21T18:22:39.522Z,69.30
2022-11-21T18:26:08.072Z,64.40
2022-11-21T18:29:36.597Z,57.90
2022-11-21T18:33:04.688Z,53.60
2022-11-21T18:36:32.971Z,49.80
2022-11-21T18:39:59.612Z,48.40
2022-11-21T18:43:26.606Z,48.70
2022-11-21T18:46:53.754Z,46.30
2022-11-21T18:50:20.752Z,43.00
2022-11-21T18:53:51.350Z,38.90
2022-11-21T18:57:18.184Z,37.50
2022-11-21T19:00:44.973Z,45.10
2022-11-21T19:04:11.882Z,44.90
2022-11-21T19:07:38.620Z,56.50
2022-11-21T19:11:06.761Z,62.80
2022-11-21T19:14:33.685Z,56.40
2022-11-21T19:18:00.382Z,41.00
2022-11-21T19:30:55.325Z,28.10
2022-11-21T19:34:22.258Z,29.20
2022-11-21T19:37:49.104Z,47.50
2022-11-21T19:41:19.866Z,45.00
2022-11-21T19:44:47.939Z,44.40
2022-11-21T19:48:15.039Z,46.50
2022-11-21T19:51:42.976Z,47.70
2022-11-21T19:55:11.866Z,42.90
2022-11-21T19:58:39.238Z,41.00
2022-11-21T20:02:06.315Z,41.10
2022-11-21T20:05:33.285Z,49.10
2022-11-21T20:09:01.822Z,51.30
2022-11-21T20:12:28.696Z,39.30
2022-11-21T20:15:55.408Z,49.80
2022-11-21T20:19:24.076Z,47.20
2022-11-21T20:22:52.249Z,44.00
2022-11-21T20:26:20.666Z,48.70
2022-11-21T20:29:47.887Z,46.00
2022-11-21T20:33:14.580Z,45.70
2022-11-21T20:36:42.536Z,56.80
2022-11-21T20:40:11.562Z,44.90
2022-11-21T20:44:24.430Z,36.00
2022-11-21T20:47:25.031Z,50.30
2022-11-21T20:54:42.891Z,33.70
2022-11-21T20:58:09.739Z,43.00
2022-11-21T21:01:36.548Z,41.70
2022-11-21T21:05:03.317Z,44.90
2022-11-21T21:08:30.667Z,44.80
2022-11-21T21:11:57.463Z,45.60
2022-11-21T21:15:24.352Z,47.30
2022-11-21T21:18:53.480Z,49.80
2022-11-21T21:22:20.790Z,45.60
2022-11-21T21:25:49.129Z,45.90
2022-11-21T21:29:18.440Z,50.50
2022-11-21T21:36:12.581Z,49.70
2022-11-21T21:39:39.317Z,42.20
2022-11-21T21:43:05.964Z,52.30
2022-11-21T21:46:33.094Z,46.40
2022-11-21T21:50:00.084Z,52.00
2022-11-21T21:53:27.290Z,47.20
2022-11-21T21:56:54.283Z,48.30
2022-11-21T22:00:21.614Z,48.90
2022-11-21T22:03:49.709Z,55.40
2022-11-21T22:07:16.449Z,50.20
2022-11-21T22:10:43.552Z,43.40
2022-11-21T22:14:14.508Z,44.90
2022-11-21T22:17:41.289Z,45.90
2022-11-21T22:21:16.513Z,51.80
2022-11-21T22:24:43.936Z,52.60
2022-11-21T22:28:10.882Z,43.90
2022-11-21T22:31:38.199Z,49.50
2022-11-21T22:35:05.507Z,42.90
2022-11-21T22:38:32.660Z,45.20
2022-11-21T22:42:00.071Z,37.60
2022-11-21T22:45:27.074Z,36.90
2022-11-21T22:48:54.546Z,37.30
2022-11-21T22:52:21.354Z,36.30
2022-11-21T22:55:55.985Z,32.50
2022-11-21T22:59:22.789Z,37.20
2022-11-21T23:02:49.530Z,36.70
2022-11-21T23:06:56.268Z,33.70
2022-11-21T23:11:06.347Z,31.40
2022-11-21T23:14:32.897Z,32.70
2022-11-21T23:17:59.741Z,35.50
2022-11-21T23:21:26.393Z,35.40
2022-11-21T23:24:53.288Z,33.60
2022-11-21T23:28:19.823Z,34.20
2022-11-21T23:31:46.286Z,34.60
2022-11-21T23:35:13.058Z,35.60
2022-11-21T23:38:39.769Z,32.70
2022-11-21T23:42:06.731Z,33.00
2022-11-21T23:45:33.929Z,31.90
2022-11-21T23:49:01.109Z,31.00
2022-11-21T23:52:27.856Z,30.30
2022-11-21T23:55:54.481Z,32.20
2022-11-21T23:59:21.129Z,33.80
